createdAt,value
2019-05-06T00:00:58.755Z,3.23
2019-05-06T00:03:24.819Z,3.57
2019-05-06T00:05:54.297Z,3.20
2019-05-06T00:08:23.690Z,3.47
2019-05-06T00:10:54.099Z,3.43
2019-05-06T00:13:24.085Z,3.67
2019-05-06T00:15:54.215Z,3.67
2019-05-06T00:18:24.477Z,3.67
2019-05-06T00:20:54.830Z,3.27
2019-05-06T00:23:38.156Z,4.00
2019-05-06T00:26:10.595Z,3.57
2019-05-06T00:28:44.682Z,3.60
2019-05-06T00:31:17.254Z,4.03
2019-05-06T00:33:45.654Z,3.77
2019-05-06T00:36:14.224Z,3.80
2019-05-06T00:38:44.834Z,3.67
2019-05-06T00:41:24.693Z,3.60
2019-05-06T00:43:54.569Z,4.20
2019-05-06T00:46:24.328Z,4.30
2019-05-06T00:48:54.235Z,3.57
2019-05-06T00:51:24.141Z,4.60
2019-05-06T00:54:00.414Z,4.13
2019-05-06T00:56:29.072Z,4.03
2019-05-06T00:58:57.614Z,4.43
2019-05-06T01:01:29.639Z,4.90
2019-05-06T01:03:56.429Z,4.23
2019-05-06T01:06:24.824Z,4.13
2019-05-06T01:08:54.403Z,4.33
2019-05-06T01:11:23.896Z,3.73
2019-05-06T01:14:05.742Z,3.83
2019-05-06T01:16:34.615Z,3.67
2019-05-06T01:19:04.723Z,4.13
2019-05-06T01:21:34.207Z,3.87
2019-05-06T01:24:04.041Z,4.13
2019-05-06T01:26:33.745Z,4.03
2019-05-06T01:29:03.912Z,4.27
2019-05-06T01:31:40.601Z,3.90
2019-05-06T01:34:04.275Z,3.60
2019-05-06T01:36:34.353Z,3.67
2019-05-06T01:39:07.778Z,3.97
2019-05-06T01:41:40.535Z,3.93
2019-05-06T01:44:08.993Z,4.40
2019-05-06T01:46:37.567Z,4.40
2019-05-06T01:49:06.142Z,4.57
2019-05-06T01:51:34.899Z,4.90
2019-05-06T01:54:03.871Z,5.17
2019-05-06T01:56:33.680Z,4.50
2019-05-06T01:59:04.354Z,4.83
2019-05-06T02:01:34.111Z,4.67
2019-05-06T02:04:04.436Z,4.57
2019-05-06T02:06:34.318Z,5.37
2019-05-06T02:09:04.607Z,5.20
2019-05-06T02:11:33.714Z,4.97
2019-05-06T02:14:04.553Z,5.10
2019-05-06T02:16:34.317Z,5.13
2019-05-06T02:19:04.010Z,4.57
2019-05-06T02:21:34.295Z,5.00
2019-05-06T02:24:16.135Z,5.70
2019-05-06T02:26:44.534Z,5.43
2019-05-06T02:29:26.483Z,5.70
2019-05-06T02:32:19.903Z,5.13
2019-05-06T02:34:39.983Z,4.60
2019-05-06T02:37:14.674Z,5.30
2019-05-06T02:39:43.892Z,5.90
2019-05-06T02:42:13.046Z,5.20
2019-05-06T02:44:44.251Z,5.07
2019-05-06T02:47:13.826Z,5.20
2019-05-06T02:49:46.984Z,5.47
2019-05-06T02:52:15.442Z,6.20
2019-05-06T02:54:43.847Z,6.07
2019-05-06T02:57:13.129Z,6.20
2019-05-06T02:59:44.132Z,6.23
2019-05-06T03:02:14.017Z,6.00
2019-05-06T03:04:43.756Z,6.10
2019-05-06T03:07:14.511Z,6.47
2019-05-06T03:09:44.546Z,7.37
2019-05-06T03:12:13.520Z,6.50
2019-05-06T03:14:43.638Z,6.53
2019-05-06T03:17:14.074Z,7.00
2019-05-06T03:19:45.944Z,6.87
2019-05-06T03:22:24.131Z,6.73
2019-05-06T03:24:54.431Z,6.37
2019-05-06T03:27:23.614Z,7.47
2019-05-06T03:29:53.658Z,7.73
2019-05-06T03:32:29.891Z,6.60
2019-05-06T03:35:16.116Z,6.93
2019-05-06T03:37:23.829Z,7.30
2019-05-06T03:39:53.135Z,7.67
2019-05-06T03:42:23.100Z,7.50
2019-05-06T03:44:53.730Z,6.50
2019-05-06T03:47:42.720Z,6.70
2019-05-06T03:50:13.114Z,7.17
2019-05-06T03:52:43.012Z,7.50
2019-05-06T03:55:13.513Z,7.40
2019-05-06T03:57:42.842Z,8.93
2019-05-06T04:00:15.933Z,7.40
2019-05-06T04:02:44.363Z,7.70
2019-05-06T04:05:13.535Z,7.73
2019-05-06T04:07:45.476Z,8.93
2019-05-06T04:10:13.718Z,7.63
2019-05-06T04:12:44.219Z,7.83
2019-05-06T04:15:14.278Z,8.57
2019-05-06T04:17:54.128Z,7.40
2019-05-06T04:20:30.216Z,7.67
2019-05-06T04:23:06.487Z,7.97
2019-05-06T04:25:52.939Z,7.83
2019-05-06T04:28:34.180Z,7.77
2019-05-06T04:31:02.765Z,7.70
2019-05-06T04:33:33.214Z,8.97
2019-05-06T04:36:03.595Z,8.50
2019-05-06T04:38:33.668Z,7.87
2019-05-06T04:41:02.895Z,8.30
2019-05-06T04:43:33.761Z,7.50
2019-05-06T04:46:03.184Z,7.90
2019-05-06T04:48:33.021Z,8.30
2019-05-06T04:51:03.460Z,8.57
2019-05-06T04:53:34.137Z,8.30
2019-05-06T04:56:03.940Z,8.70
2019-05-06T04:58:33.534Z,8.53
2019-05-06T05:01:04.116Z,8.47
2019-05-06T05:03:33.619Z,8.20
2019-05-06T05:06:05.609Z,8.97
2019-05-06T05:08:39.239Z,9.03
2019-05-06T05:11:24.846Z,8.63
2019-05-06T05:14:02.816Z,8.20
2019-05-06T05:16:33.238Z,8.20
2019-05-06T05:19:03.539Z,7.50
2019-05-06T05:21:32.343Z,7.70
2019-05-06T05:24:02.071Z,7.77
2019-05-06T05:26:32.369Z,8.80
2019-05-06T05:29:02.797Z,8.23
2019-05-06T05:31:33.219Z,7.77
2019-05-06T05:34:02.290Z,8.37
2019-05-06T05:36:32.851Z,8.07
2019-05-06T05:39:03.352Z,8.07
2019-05-06T05:41:33.232Z,7.97
2019-05-06T05:44:06.415Z,7.83
2019-05-06T05:46:34.859Z,8.53
2019-05-06T05:49:08.050Z,8.47
2019-05-06T05:51:36.439Z,8.57
2019-05-06T05:54:04.870Z,8.60
2019-05-06T05:56:33.689Z,8.93
2019-05-06T05:59:03.352Z,8.27
2019-05-06T06:01:32.663Z,8.30
2019-05-06T06:04:03.177Z,8.53
2019-05-06T06:06:33.129Z,8.10
2019-05-06T06:09:03.041Z,8.50
2019-05-06T06:11:42.455Z,9.13
2019-05-06T06:14:29.004Z,8.30
2019-05-06T06:17:25.922Z,8.47
2019-05-06T06:20:12.307Z,7.53
2019-05-06T06:22:42.526Z,7.80
2019-05-06T06:25:14.196Z,8.30
2019-05-06T06:27:49.425Z,7.43
2019-05-06T06:30:19.594Z,8.30
2019-05-06T06:32:47.979Z,7.57
2019-05-06T06:35:22.756Z,7.97
2019-05-06T06:37:53.248Z,7.10
2019-05-06T06:40:22.891Z,7.83
2019-05-06T06:42:53.012Z,7.47
2019-05-06T06:45:23.065Z,7.13
2019-05-06T06:47:52.047Z,8.43
2019-05-06T06:50:22.076Z,7.37
2019-05-06T06:52:52.491Z,6.87
2019-05-06T06:55:22.530Z,7.17
2019-05-06T06:57:57.358Z,6.97
2019-05-06T07:00:33.582Z,7.53
2019-05-06T07:03:03.958Z,7.00
2019-05-06T07:05:33.993Z,7.07
2019-05-06T07:08:03.042Z,6.67
2019-05-06T07:10:43.437Z,6.80
2019-05-06T07:13:16.008Z,6.50
2019-05-06T07:15:44.649Z,6.70
2019-05-06T07:18:13.651Z,8.10
2019-05-06T07:21:03.725Z,6.90
2019-05-06T07:23:32.671Z,6.50
2019-05-06T07:26:03.029Z,6.97
2019-05-06T07:28:32.689Z,7.57
2019-05-06T07:31:14.971Z,6.80
2019-05-06T07:33:33.466Z,6.63
2019-05-06T07:36:02.290Z,7.23
2019-05-06T07:38:32.647Z,7.20
2019-05-06T07:41:04.508Z,7.03
2019-05-06T07:43:52.575Z,6.20
2019-05-06T07:46:42.723Z,6.60
2019-05-06T07:49:12.609Z,5.50
2019-05-06T07:51:42.011Z,5.97
2019-05-06T07:54:12.282Z,5.97
2019-05-06T07:56:42.781Z,5.83
2019-05-06T07:59:12.774Z,5.80
2019-05-06T08:01:43.910Z,6.00
2019-05-06T08:04:12.211Z,6.20
2019-05-06T08:06:42.732Z,5.73
2019-05-06T08:09:12.964Z,6.43
2019-05-06T08:11:42.295Z,5.73
2019-05-06T08:14:13.065Z,5.80
2019-05-06T08:16:44.482Z,6.50
2019-05-06T08:19:13.007Z,5.50
2019-05-06T08:21:45.745Z,6.80
2019-05-06T08:24:14.222Z,6.37
2019-05-06T08:26:45.264Z,6.00
2019-05-06T08:29:15.946Z,6.03
2019-05-06T08:31:43.971Z,6.50
2019-05-06T08:34:12.533Z,6.07
2019-05-06T08:36:42.805Z,6.40
2019-05-06T08:39:13.078Z,6.30
2019-05-06T08:41:42.351Z,6.30
2019-05-06T08:44:12.757Z,5.47
2019-05-06T08:46:43.279Z,5.77
2019-05-06T08:49:12.314Z,5.70
2019-05-06T08:51:45.290Z,5.30
2019-05-06T08:54:18.015Z,4.73
2019-05-06T08:56:46.789Z,5.00
2019-05-06T08:59:15.256Z,5.03
2019-05-06T09:01:48.151Z,4.40
2019-05-06T09:04:16.644Z,4.83
2019-05-06T09:06:45.383Z,4.40
2019-05-06T09:09:13.779Z,5.33
2019-05-06T09:11:43.166Z,4.90
2019-05-06T09:14:13.723Z,4.70
2019-05-06T09:16:43.755Z,4.77
2019-05-06T09:19:12.916Z,4.83
2019-05-06T09:21:45.694Z,5.07
2019-05-06T09:24:12.840Z,5.43
2019-05-06T09:26:43.287Z,4.57
2019-05-06T09:29:19.267Z,5.40
2019-05-06T09:31:49.325Z,4.70
2019-05-06T09:34:23.395Z,5.07
2019-05-06T09:37:09.671Z,4.57
2019-05-06T09:39:38.103Z,4.70
2019-05-06T09:42:06.502Z,4.90
2019-05-06T09:44:35.022Z,4.60
2019-05-06T09:47:04.666Z,4.80
2019-05-06T09:49:34.771Z,5.07
2019-05-06T09:52:03.182Z,4.53
2019-05-06T09:54:38.763Z,4.53
2019-05-06T09:57:22.132Z,4.90
2019-05-06T09:59:52.646Z,5.13
2019-05-06T10:02:23.058Z,4.43
2019-05-06T10:04:52.201Z,5.40
2019-05-06T10:07:22.535Z,5.80
2019-05-06T10:09:52.672Z,5.03
2019-05-06T10:12:21.062Z,5.07
2019-05-06T10:14:49.548Z,4.50
2019-05-06T10:17:17.936Z,5.20
2019-05-06T10:19:46.346Z,5.20
2019-05-06T10:22:14.750Z,5.23
2019-05-06T10:24:43.475Z,5.00
2019-05-06T10:27:12.275Z,5.07
2019-05-06T10:29:45.448Z,4.97
2019-05-06T10:32:24.590Z,4.90
2019-05-06T10:34:53.058Z,4.63
2019-05-06T10:37:26.277Z,3.90
2019-05-06T10:40:13.479Z,4.47
2019-05-06T10:42:48.011Z,4.97
2019-05-06T10:45:19.479Z,5.07
2019-05-06T10:47:47.879Z,5.17
2019-05-06T10:50:16.304Z,6.23
2019-05-06T10:53:02.753Z,6.33
2019-05-06T10:55:32.482Z,5.60
2019-05-06T10:58:02.634Z,5.10
2019-05-06T11:00:33.162Z,4.97
2019-05-06T11:03:15.304Z,5.23
2019-05-06T11:05:43.961Z,5.00
2019-05-06T11:08:12.775Z,5.53
2019-05-06T11:10:45.116Z,5.93
2019-05-06T11:13:12.939Z,5.57
2019-05-06T11:15:43.347Z,5.87
2019-05-06T11:18:13.479Z,5.97
2019-05-06T11:20:43.983Z,6.23
2019-05-06T11:23:14.176Z,6.70
2019-05-06T11:25:43.168Z,6.53
2019-05-06T11:28:29.570Z,6.40
2019-05-06T11:31:02.212Z,6.60
2019-05-06T11:33:32.944Z,6.83
2019-05-06T11:36:03.103Z,6.60
2019-05-06T11:38:32.258Z,6.17
2019-05-06T11:41:00.989Z,5.50
2019-05-06T11:43:29.518Z,5.07
2019-05-06T11:45:57.927Z,5.20
2019-05-06T11:48:26.731Z,4.83
2019-05-06T11:50:56.858Z,5.20
2019-05-06T11:53:25.256Z,5.20
2019-05-06T11:55:54.750Z,5.50
2019-05-06T12:01:25.643Z,4.83
2019-05-06T12:03:54.155Z,5.23
2019-05-06T12:06:22.853Z,5.60
2019-05-06T12:08:52.476Z,6.20
2019-05-06T12:11:23.410Z,4.87
2019-05-06T12:13:53.269Z,5.60
2019-05-06T12:16:26.065Z,4.23
2019-05-06T12:18:52.898Z,4.37
2019-05-06T12:21:23.142Z,4.33
2019-05-06T12:23:53.874Z,4.50
2019-05-06T12:26:21.908Z,4.40
2019-05-06T12:28:52.924Z,4.97
2019-05-06T12:31:20.449Z,4.13
2019-05-06T12:33:50.025Z,4.37
2019-05-06T12:36:20.427Z,5.33
2019-05-06T12:39:07.200Z,4.77
2019-05-06T12:41:37.251Z,4.53
2019-05-06T12:44:05.778Z,4.30
2019-05-06T12:46:35.831Z,4.37
2019-05-06T12:49:04.494Z,4.33
2019-05-06T12:51:32.895Z,3.73
2019-05-06T12:54:03.517Z,3.30
2019-05-06T12:56:32.748Z,3.77
2019-05-06T12:59:02.052Z,4.00
2019-05-06T13:01:33.927Z,3.97
2019-05-06T13:04:04.129Z,3.50
2019-05-06T13:06:33.206Z,4.00
2019-05-06T13:09:04.925Z,3.97
2019-05-06T13:11:31.663Z,4.00
2019-05-06T13:14:00.834Z,4.20
2019-05-06T13:16:30.249Z,4.43
2019-05-06T13:18:58.710Z,4.27
2019-05-06T13:21:27.207Z,4.07
2019-05-06T13:23:57.260Z,4.37
2019-05-06T13:26:25.666Z,4.17
2019-05-06T13:28:55.694Z,4.73
2019-05-06T13:31:25.582Z,3.93
2019-05-06T13:34:10.801Z,3.50
2019-05-06T13:36:39.283Z,3.60
2019-05-06T13:39:32.542Z,3.80
2019-05-06T13:41:38.072Z,4.13
2019-05-06T13:44:13.103Z,3.57
2019-05-06T13:46:42.958Z,3.37
2019-05-06T13:49:13.477Z,3.50
2019-05-06T13:51:43.748Z,3.50
2019-05-06T13:54:15.477Z,3.07
2019-05-06T13:56:43.016Z,3.50
2019-05-06T13:59:12.853Z,3.23
2019-05-06T14:01:44.144Z,3.90
2019-05-06T14:04:14.617Z,4.00
2019-05-06T14:06:43.362Z,3.97
2019-05-06T14:09:27.998Z,4.40
2019-05-06T14:11:42.122Z,4.23
2019-05-06T14:14:12.592Z,4.23
2019-05-06T14:16:42.723Z,4.23
2019-05-06T14:19:12.996Z,4.17
2019-05-06T14:21:43.166Z,4.07
2019-05-06T14:24:13.393Z,3.40
2019-05-06T14:26:44.696Z,3.57
2019-05-06T14:29:20.422Z,3.37
2019-05-06T14:31:53.482Z,3.63
2019-05-06T14:34:23.008Z,3.07
2019-05-06T14:36:53.359Z,3.70
2019-05-06T14:39:42.677Z,3.17
2019-05-06T14:41:57.564Z,3.77
2019-05-06T14:44:25.954Z,3.40
2019-05-06T14:47:04.907Z,3.83
2019-05-06T14:49:33.377Z,3.47
2019-05-06T14:52:02.771Z,3.40
2019-05-06T14:54:33.082Z,3.23
2019-05-06T14:57:06.194Z,3.17
2019-05-06T14:59:34.626Z,3.57
2019-05-06T15:02:03.039Z,2.77
2019-05-06T15:04:32.425Z,2.70
2019-05-06T15:07:02.162Z,3.27
2019-05-06T15:09:32.961Z,3.20
2019-05-06T15:12:02.349Z,3.17
2019-05-06T15:14:33.078Z,3.03
2019-05-06T15:17:02.276Z,3.37
2019-05-06T15:19:30.855Z,3.53
2019-05-06T15:21:59.256Z,2.97
2019-05-06T15:24:27.819Z,3.30
2019-05-06T15:26:56.342Z,2.57
2019-05-06T15:29:24.747Z,2.83
2019-05-06T15:32:03.671Z,2.83
2019-05-06T15:34:53.034Z,2.80
2019-05-06T15:37:21.553Z,2.90
2019-05-06T15:39:52.056Z,2.60
2019-05-06T15:42:22.319Z,3.43
2019-05-06T15:44:50.242Z,3.20
2019-05-06T15:47:18.626Z,2.67
2019-05-06T15:49:47.063Z,2.87
2019-05-06T15:52:15.526Z,2.73
2019-05-06T15:54:44.002Z,2.80
2019-05-06T15:57:12.467Z,2.80
2019-05-06T15:59:43.957Z,2.97
2019-05-06T16:02:11.045Z,3.10
2019-05-06T16:04:39.704Z,3.00
2019-05-06T16:07:08.186Z,2.87
2019-05-06T16:09:36.622Z,2.90
2019-05-06T16:12:05.085Z,2.90
2019-05-06T16:14:34.868Z,2.77
2019-05-06T16:17:03.935Z,2.93
2019-05-06T16:19:33.616Z,3.07
2019-05-06T16:22:04.162Z,2.93
2019-05-06T16:24:37.684Z,2.63
2019-05-06T16:27:06.098Z,2.70
2019-05-06T16:29:37.233Z,3.53
2019-05-06T16:32:06.943Z,3.37
2019-05-06T16:34:35.448Z,3.50
2019-05-06T16:37:04.360Z,3.17
2019-05-06T16:39:33.232Z,3.27
2019-05-06T16:42:03.629Z,3.00
2019-05-06T16:44:31.867Z,3.23
2019-05-06T16:47:02.680Z,2.90
2019-05-06T16:49:30.398Z,3.20
2019-05-06T16:51:58.806Z,3.30
2019-05-06T16:54:27.870Z,3.40
2019-05-06T16:56:58.035Z,2.97
2019-05-06T16:59:26.528Z,3.00
2019-05-06T17:01:57.482Z,2.60
2019-05-06T17:04:32.807Z,2.90
2019-05-06T17:07:00.471Z,3.10
2019-05-06T17:09:28.903Z,3.20
2019-05-06T17:11:57.366Z,3.07
2019-05-06T17:14:25.904Z,3.00
2019-05-06T17:16:54.318Z,3.20
2019-05-06T17:19:23.150Z,2.80
2019-05-06T17:21:52.436Z,3.10
2019-05-06T17:24:22.002Z,2.93
2019-05-06T17:26:53.924Z,3.90
2019-05-06T17:29:25.006Z,3.27
2019-05-06T17:31:58.034Z,2.50
2019-05-06T17:34:37.456Z,3.53
2019-05-06T17:37:07.514Z,3.10
2019-05-06T17:39:35.910Z,3.20
2019-05-06T17:42:04.370Z,3.50
2019-05-06T17:44:32.873Z,3.50
2019-05-06T17:47:03.142Z,3.67
2019-05-06T17:49:33.166Z,3.87
2019-05-06T17:52:03.570Z,3.50
2019-05-06T17:54:32.613Z,3.37
2019-05-06T17:57:04.453Z,2.80
2019-05-06T17:59:33.142Z,3.93
2019-05-06T18:02:03.520Z,3.80
2019-05-06T18:04:34.223Z,3.20
2019-05-06T18:07:02.050Z,3.43
2019-05-06T18:09:30.536Z,3.70
2019-05-06T18:11:59.725Z,3.57
2019-05-06T18:14:28.686Z,3.57
2019-05-06T18:16:57.149Z,3.60
2019-05-06T18:19:25.557Z,4.37
2019-05-06T18:21:54.198Z,4.50
2019-05-06T18:24:23.151Z,4.37
2019-05-06T18:26:52.849Z,4.10
2019-05-06T18:29:22.221Z,5.57
2019-05-06T18:31:52.489Z,4.30
2019-05-06T18:34:23.036Z,3.80
2019-05-06T18:36:52.486Z,4.63
2019-05-06T18:39:22.358Z,3.73
2019-05-06T18:41:53.176Z,4.37
2019-05-06T18:44:22.782Z,4.00
2019-05-06T18:46:53.060Z,3.80
2019-05-06T18:49:22.366Z,4.30
2019-05-06T18:51:51.975Z,4.70
2019-05-06T18:54:22.048Z,4.13
2019-05-06T18:56:52.225Z,4.67
2019-05-06T18:59:22.983Z,4.17
2019-05-06T19:01:50.982Z,4.43
2019-05-06T19:04:33.558Z,5.10
2019-05-06T19:07:12.269Z,4.70
2019-05-06T19:09:37.021Z,5.20
2019-05-06T19:12:05.405Z,4.87
2019-05-06T19:14:33.926Z,4.70
2019-05-06T19:17:02.787Z,4.30
2019-05-06T19:19:34.252Z,4.13
2019-05-06T19:22:02.954Z,4.33
2019-05-06T19:24:33.471Z,4.37
2019-05-06T19:27:02.184Z,4.67
2019-05-06T19:29:32.719Z,5.20
2019-05-06T19:32:03.042Z,4.60
2019-05-06T19:34:34.515Z,4.90
2019-05-06T19:37:02.425Z,5.70
2019-05-06T19:39:32.918Z,4.93
2019-05-06T19:42:02.874Z,6.00
2019-05-06T19:44:31.228Z,6.03
2019-05-06T19:46:59.686Z,5.63
2019-05-06T19:49:28.099Z,6.03
2019-05-06T19:51:56.503Z,6.43
2019-05-06T19:54:24.906Z,6.47
2019-05-06T19:56:53.309Z,6.77
2019-05-06T19:59:21.855Z,6.73
2019-05-06T20:01:52.320Z,6.30
2019-05-06T20:04:22.567Z,5.40
2019-05-06T20:06:55.328Z,4.97
2019-05-06T20:09:25.366Z,5.97
2019-05-06T20:11:58.230Z,6.00
2019-05-06T20:14:26.630Z,6.17
2019-05-06T20:16:55.030Z,6.43
2019-05-06T20:19:30.837Z,6.70
2019-05-06T20:21:53.783Z,6.83
2019-05-06T20:24:22.582Z,6.30
2019-05-06T20:26:52.709Z,5.83
2019-05-06T20:29:22.457Z,4.90
2019-05-06T20:31:53.317Z,5.77
2019-05-06T20:34:22.435Z,5.37
2019-05-06T20:36:52.835Z,5.60
2019-05-06T20:39:23.000Z,5.03
2019-05-06T20:41:51.338Z,4.83
2019-05-06T20:44:19.752Z,4.63
2019-05-06T20:46:48.151Z,4.73
2019-05-06T20:49:16.630Z,5.43
2019-05-06T20:51:45.042Z,5.90
2019-05-06T20:54:13.682Z,5.50
2019-05-06T20:56:42.350Z,5.17
2019-05-06T20:59:12.158Z,5.70
2019-05-06T21:01:42.478Z,5.77
2019-05-06T21:04:12.986Z,5.77
2019-05-06T21:06:42.615Z,5.63
2019-05-06T21:09:12.600Z,5.97
2019-05-06T21:11:42.120Z,5.77
2019-05-06T21:14:13.240Z,5.70
2019-05-06T21:16:42.284Z,6.60
2019-05-06T21:19:12.624Z,6.37
2019-05-06T21:21:43.212Z,6.10
2019-05-06T21:24:12.956Z,6.63
2019-05-06T21:26:42.902Z,6.00
2019-05-06T21:29:12.758Z,6.07
2019-05-06T21:31:42.235Z,5.70
2019-05-06T21:34:12.834Z,6.83
2019-05-06T21:36:42.271Z,7.50
2019-05-06T21:39:12.922Z,5.93
2019-05-06T21:41:42.782Z,7.40
2019-05-06T21:44:13.191Z,6.40
2019-05-06T21:46:42.866Z,6.83
2019-05-06T21:49:12.114Z,6.03
2019-05-06T21:51:42.517Z,5.73
2019-05-06T21:54:12.648Z,6.10
2019-05-06T21:56:42.416Z,6.43
2019-05-06T21:59:12.873Z,6.33
2019-05-06T22:01:42.984Z,5.93
2019-05-06T22:04:12.738Z,6.03
2019-05-06T22:06:42.885Z,6.03
2019-05-06T22:09:12.478Z,5.87
2019-05-06T22:11:42.420Z,5.90
2019-05-06T22:14:12.296Z,6.00
2019-05-06T22:16:40.981Z,6.27
2019-05-06T22:19:09.420Z,7.00
2019-05-06T22:21:56.203Z,6.77
2019-05-06T22:24:33.131Z,6.60
2019-05-06T22:27:02.873Z,6.87
2019-05-06T22:29:33.063Z,6.60
2019-05-06T22:32:02.822Z,6.83
2019-05-06T22:34:32.958Z,7.07
2019-05-06T22:37:03.348Z,6.60
2019-05-06T22:39:34.036Z,6.87
2019-05-06T22:42:01.770Z,7.23
2019-05-06T22:44:32.339Z,7.23
2019-05-06T22:47:02.596Z,7.43
2019-05-06T22:49:32.076Z,7.30
2019-05-06T22:52:02.844Z,8.57
2019-05-06T22:54:32.045Z,7.33
2019-05-06T22:57:02.323Z,7.23
2019-05-06T22:59:32.825Z,8.03
2019-05-06T23:02:02.580Z,7.40
2019-05-06T23:04:32.635Z,7.93
2019-05-06T23:07:02.835Z,7.70
2019-05-06T23:09:32.563Z,7.47
2019-05-06T23:12:02.398Z,7.33
2019-05-06T23:14:36.477Z,7.80
2019-05-06T23:17:02.885Z,7.47
2019-05-06T23:19:31.864Z,8.20
2019-05-06T23:22:04.018Z,7.33
2019-05-06T23:24:32.128Z,8.17
2019-05-06T23:27:02.371Z,7.40
2019-05-06T23:29:30.867Z,8.23
2019-05-06T23:31:59.257Z,8.17
2019-05-06T23:34:27.662Z,8.23
2019-05-06T23:36:59.149Z,7.93
2019-05-06T23:40:05.713Z,8.60
2019-05-06T23:43:12.513Z,9.37
2019-05-06T23:46:17.718Z,8.77
2019-05-06T23:49:22.880Z,7.33
2019-05-06T23:52:27.983Z,7.17
2019-05-06T23:55:32.829Z,7.83
2019-05-06T23:58:00.151Z,8.37
